sensor_id;sensor_type;location;lat;lon;timestamp;temperature;humidity
13093;DHT22;6612;49.568;11.000;2023-02-28T00:01:44;1.70;45.60
13093;DHT22;6612;49.568;11.000;2023-02-28T00:04:12;1.70;45.70
13093;DHT22;6612;49.568;11.000;2023-02-28T00:06:39;1.70;45.70
13093;DHT22;6612;49.568;11.000;2023-02-28T00:09:07;1.70;45.60
13093;DHT22;6612;49.568;11.000;2023-02-28T00:11:34;1.70;45.60
13093;DHT22;6612;49.568;11.000;2023-02-28T00:14:03;1.70;45.70
13093;DHT22;6612;49.568;11.000;2023-02-28T00:16:30;1.70;45.70
13093;DHT22;6612;49.568;11.000;2023-02-28T00:18:57;1.70;45.70
13093;DHT22;6612;49.568;11.000;2023-02-28T00:21:25;1.70;45.70
13093;DHT22;6612;49.568;11.000;2023-02-28T00:23:52;1.70;45.90
13093;DHT22;6612;49.568;11.000;2023-02-28T00:26:19;1.70;46.50
13093;DHT22;6612;49.568;11.000;2023-02-28T00:28:46;1.70;45.80
13093;DHT22;6612;49.568;11.000;2023-02-28T00:31:13;1.70;45.80
13093;DHT22;6612;49.568;11.000;2023-02-28T00:33:40;1.70;45.90
13093;DHT22;6612;49.568;11.000;2023-02-28T00:36:09;1.70;46.00
13093;DHT22;6612;49.568;11.000;2023-02-28T00:38:39;1.60;45.90
13093;DHT22;6612;49.568;11.000;2023-02-28T00:41:06;1.60;45.90
13093;DHT22;6612;49.568;11.000;2023-02-28T00:43:35;1.50;46.00
13093;DHT22;6612;49.568;11.000;2023-02-28T00:46:02;1.60;46.00
13093;DHT22;6612;49.568;11.000;2023-02-28T00:48:29;1.60;46.00
13093;DHT22;6612;49.568;11.000;2023-02-28T00:50:57;1.60;46.10
13093;DHT22;6612;49.568;11.000;2023-02-28T00:53:23;1.60;46.20
13093;DHT22;6612;49.568;11.000;2023-02-28T00:55:52;1.60;46.20
13093;DHT22;6612;49.568;11.000;2023-02-28T00:58:19;1.60;46.30
13093;DHT22;6612;49.568;11.000;2023-02-28T01:00:46;1.60;46.30
13093;DHT22;6612;49.568;11.000;2023-02-28T01:03:14;1.60;46.30
13093;DHT22;6612;49.568;11.000;2023-02-28T01:05:41;1.60;46.30
13093;DHT22;6612;49.568;11.000;2023-02-28T01:08:08;1.60;46.10
13093;DHT22;6612;49.568;11.000;2023-02-28T01:10:35;1.60;46.20
13093;DHT22;6612;49.568;11.000;2023-02-28T01:13:04;1.60;46.30
13093;DHT22;6612;49.568;11.000;2023-02-28T01:15:32;1.60;46.40
13093;DHT22;6612;49.568;11.000;2023-02-28T01:17:59;1.60;46.30
13093;DHT22;6612;49.568;11.000;2023-02-28T01:20:26;1.60;46.30
13093;DHT22;6612;49.568;11.000;2023-02-28T01:22:53;1.60;46.30
13093;DHT22;6612;49.568;11.000;2023-02-28T01:25:19;1.60;46.30
13093;DHT22;6612;49.568;11.000;2023-02-28T01:27:46;1.60;47.00
13093;DHT22;6612;49.568;11.000;2023-02-28T01:30:15;1.60;46.40
13093;DHT22;6612;49.568;11.000;2023-02-28T01:32:42;1.60;46.50
13093;DHT22;6612;49.568;11.000;2023-02-28T01:35:09;1.60;46.40
13093;DHT22;6612;49.568;11.000;2023-02-28T01:37:36;1.60;46.50
13093;DHT22;6612;49.568;11.000;2023-02-28T01:40:04;1.60;46.50
13093;DHT22;6612;49.568;11.000;2023-02-28T01:42:31;1.60;46.50
13093;DHT22;6612;49.568;11.000;2023-02-28T01:45:01;1.60;46.60
13093;DHT22;6612;49.568;11.000;2023-02-28T01:47:32;1.60;46.70
13093;DHT22;6612;49.568;11.000;2023-02-28T01:50:01;1.60;46.60
13093;DHT22;6612;49.568;11.000;2023-02-28T01:52:29;1.60;46.50
13093;DHT22;6612;49.568;11.000;2023-02-28T01:54:59;1.60;46.50
13093;DHT22;6612;49.568;11.000;2023-02-28T01:57:30;1.60;46.60
13093;DHT22;6612;49.568;11.000;2023-02-28T02:00:06;1.60;46.60
13093;DHT22;6612;49.568;11.000;2023-02-28T02:02:36;1.60;46.60
13093;DHT22;6612;49.568;11.000;2023-02-28T02:05:06;1.60;46.70
13093;DHT22;6612;49.568;11.000;2023-02-28T02:07:36;1.50;46.60
13093;DHT22;6612;49.568;11.000;2023-02-28T02:10:06;1.50;46.60
13093;DHT22;6612;49.568;11.000;2023-02-28T02:12:48;1.50;46.60
13093;DHT22;6612;49.568;11.000;2023-02-28T02:15:23;1.50;47.00
13093;DHT22;6612;49.568;11.000;2023-02-28T02:17:56;1.50;46.70
13093;DHT22;6612;49.568;11.000;2023-02-28T02:20:51;1.50;46.80
13093;DHT22;6612;49.568;11.000;2023-02-28T02:23:51;1.50;47.10
13093;DHT22;6612;49.568;11.000;2023-02-28T02:26:50;1.50;47.10
13093;DHT22;6612;49.568;11.000;2023-02-28T02:29:47;1.50;46.90
13093;DHT22;6612;49.568;11.000;2023-02-28T02:32:34;1.50;47.10
13093;DHT22;6612;49.568;11.000;2023-02-28T02:35:12;1.50;46.90
13093;DHT22;6612;49.568;11.000;2023-02-28T02:37:43;1.50;46.90
13093;DHT22;6612;49.568;11.000;2023-02-28T02:40:15;1.50;46.80
13093;DHT22;6612;49.568;11.000;2023-02-28T02:42:48;1.50;46.80
13093;DHT22;6612;49.568;11.000;2023-02-28T02:45:21;1.50;46.80
13093;DHT22;6612;49.568;11.000;2023-02-28T02:47:50;1.50;46.90
13093;DHT22;6612;49.568;11.000;2023-02-28T02:50:24;1.50;46.90
13093;DHT22;6612;49.568;11.000;2023-02-28T02:52:55;1.40;46.90
13093;DHT22;6612;49.568;11.000;2023-02-28T02:55:23;1.50;46.90
13093;DHT22;6612;49.568;11.000;2023-02-28T02:57:53;1.50;46.80
13093;DHT22;6612;49.568;11.000;2023-02-28T03:00:26;1.40;46.80
13093;DHT22;6612;49.568;11.000;2023-02-28T03:02:56;1.50;47.60
13093;DHT22;6612;49.568;11.000;2023-02-28T03:05:27;1.50;47.00
13093;DHT22;6612;49.568;11.000;2023-02-28T03:07:56;1.50;47.10
13093;DHT22;6612;49.568;11.000;2023-02-28T03:10:32;1.40;47.20
13093;DHT22;6612;49.568;11.000;2023-02-28T03:13:24;1.50;47.30
13093;DHT22;6612;49.568;11.000;2023-02-28T03:16:05;1.40;47.30
13093;DHT22;6612;49.568;11.000;2023-02-28T03:18:42;1.50;47.30
13093;DHT22;6612;49.568;11.000;2023-02-28T03:21:17;1.50;47.20
13093;DHT22;6612;49.568;11.000;2023-02-28T03:23:56;1.40;47.20
13093;DHT22;6612;49.568;11.000;2023-02-28T03:26:27;1.40;47.30
13093;DHT22;6612;49.568;11.000;2023-02-28T03:29:00;1.40;47.00
13093;DHT22;6612;49.568;11.000;2023-02-28T03:31:31;1.40;47.20
13093;DHT22;6612;49.568;11.000;2023-02-28T03:34:03;1.40;47.10
13093;DHT22;6612;49.568;11.000;2023-02-28T03:36:36;1.40;47.20
13093;DHT22;6612;49.568;11.000;2023-02-28T03:39:11;1.40;47.40
13093;DHT22;6612;49.568;11.000;2023-02-28T03:41:43;1.40;47.40
13093;DHT22;6612;49.568;11.000;2023-02-28T03:44:16;1.30;47.40
13093;DHT22;6612;49.568;11.000;2023-02-28T03:46:48;1.30;47.60
13093;DHT22;6612;49.568;11.000;2023-02-28T03:49:18;1.40;47.50
13093;DHT22;6612;49.568;11.000;2023-02-28T03:51:50;1.40;47.30
13093;DHT22;6612;49.568;11.000;2023-02-28T03:54:22;1.40;47.50
13093;DHT22;6612;49.568;11.000;2023-02-28T03:56:52;1.40;47.40
13093;DHT22;6612;49.568;11.000;2023-02-28T03:59:27;1.40;47.40
13093;DHT22;6612;49.568;11.000;2023-02-28T04:01:55;1.40;47.70
13093;DHT22;6612;49.568;11.000;2023-02-28T04:04:24;1.30;47.50
13093;DHT22;6612;49.568;11.000;2023-02-28T04:06:53;1.40;47.60
13093;DHT22;6612;49.568;11.000;2023-02-28T04:09:27;1.30;48.10
13093;DHT22;6612;49.568;11.000;2023-02-28T04:11:54;1.40;47.50
13093;DHT22;6612;49.568;11.000;2023-02-28T04:14:22;1.40;47.60
13093;DHT22;6612;49.568;11.000;2023-02-28T04:16:49;1.40;47.60
13093;DHT22;6612;49.568;11.000;2023-02-28T04:19:17;1.30;47.50
13093;DHT22;6612;49.568;11.000;2023-02-28T04:21:46;1.40;47.60
13093;DHT22;6612;49.568;11.000;2023-02-28T04:24:17;1.30;47.50
13093;DHT22;6612;49.568;11.000;2023-02-28T04:26:45;1.40;47.70
13093;DHT22;6612;49.568;11.000;2023-02-28T04:29:14;1.30;47.60
13093;DHT22;6612;49.568;11.000;2023-02-28T04:31:44;1.30;47.60
13093;DHT22;6612;49.568;11.000;2023-02-28T04:34:11;1.40;47.60
13093;DHT22;6612;49.568;11.000;2023-02-28T04:36:38;1.40;47.60
13093;DHT22;6612;49.568;11.000;2023-02-28T04:39:05;1.40;47.80
13093;DHT22;6612;49.568;11.000;2023-02-28T04:41:33;1.40;47.70
13093;DHT22;6612;49.568;11.000;2023-02-28T04:44:00;1.40;47.70
13093;DHT22;6612;49.568;11.000;2023-02-28T04:46:27;1.40;47.60
13093;DHT22;6612;49.568;11.000;2023-02-28T04:48:56;1.40;47.70
13093;DHT22;6612;49.568;11.000;2023-02-28T04:51:23;1.40;47.80
13093;DHT22;6612;49.568;11.000;2023-02-28T04:53:50;1.40;47.80
13093;DHT22;6612;49.568;11.000;2023-02-28T04:56:17;1.40;47.90
13093;DHT22;6612;49.568;11.000;2023-02-28T04:58:46;1.40;47.80
13093;DHT22;6612;49.568;11.000;2023-02-28T05:01:20;1.40;47.80
13093;DHT22;6612;49.568;11.000;2023-02-28T05:03:48;1.40;47.90
13093;DHT22;6612;49.568;11.000;2023-02-28T05:06:15;1.40;47.80
13093;DHT22;6612;49.568;11.000;2023-02-28T05:08:42;1.40;47.80
13093;DHT22;6612;49.568;11.000;2023-02-28T05:11:15;1.40;48.60
13093;DHT22;6612;49.568;11.000;2023-02-28T05:13:42;1.50;48.00
13093;DHT22;6612;49.568;11.000;2023-02-28T05:16:10;1.50;48.00
13093;DHT22;6612;49.568;11.000;2023-02-28T05:18:37;1.50;48.00
13093;DHT22;6612;49.568;11.000;2023-02-28T05:21:05;1.50;48.00
13093;DHT22;6612;49.568;11.000;2023-02-28T05:23:32;1.50;48.60
13093;DHT22;6612;49.568;11.000;2023-02-28T05:25:59;1.40;47.90
13093;DHT22;6612;49.568;11.000;2023-02-28T05:28:26;1.50;47.90
13093;DHT22;6612;49.568;11.000;2023-02-28T05:30:53;1.50;48.00
13093;DHT22;6612;49.568;11.000;2023-02-28T05:33:21;1.50;47.90
13093;DHT22;6612;49.568;11.000;2023-02-28T05:35:48;1.50;48.00
13093;DHT22;6612;49.568;11.000;2023-02-28T05:38:15;1.50;47.90
13093;DHT22;6612;49.568;11.000;2023-02-28T05:40:43;1.60;48.00
13093;DHT22;6612;49.568;11.000;2023-02-28T05:43:10;1.50;48.00
13093;DHT22;6612;49.568;11.000;2023-02-28T05:45:38;1.50;47.90
13093;DHT22;6612;49.568;11.000;2023-02-28T05:48:05;1.50;47.90
13093;DHT22;6612;49.568;11.000;2023-02-28T05:50:34;1.50;48.00
13093;DHT22;6612;49.568;11.000;2023-02-28T05:53:01;1.40;47.90
13093;DHT22;6612;49.568;11.000;2023-02-28T05:55:28;1.50;48.00
13093;DHT22;6612;49.568;11.000;2023-02-28T05:57:55;1.50;47.90
13093;DHT22;6612;49.568;11.000;2023-02-28T06:00:23;1.50;48.00
13093;DHT22;6612;49.568;11.000;2023-02-28T06:02:49;1.50;48.00
13093;DHT22;6612;49.568;11.000;2023-02-28T06:05:19;1.50;48.00
13093;DHT22;6612;49.568;11.000;2023-02-28T06:07:47;1.50;48.10
13093;DHT22;6612;49.568;11.000;2023-02-28T06:10:14;1.50;48.10
13093;DHT22;6612;49.568;11.000;2023-02-28T06:12:41;1.50;48.10
13093;DHT22;6612;49.568;11.000;2023-02-28T06:15:12;1.50;48.10
13093;DHT22;6612;49.568;11.000;2023-02-28T06:17:39;1.50;48.20
13093;DHT22;6612;49.568;11.000;2023-02-28T06:20:08;1.50;48.10
13093;DHT22;6612;49.568;11.000;2023-02-28T06:22:36;1.50;48.20
13093;DHT22;6612;49.568;11.000;2023-02-28T06:25:05;1.60;48.30
13093;DHT22;6612;49.568;11.000;2023-02-28T06:27:33;1.60;48.30
13093;DHT22;6612;49.568;11.000;2023-02-28T06:30:00;1.60;48.30
13093;DHT22;6612;49.568;11.000;2023-02-28T06:32:28;1.60;48.30
13093;DHT22;6612;49.568;11.000;2023-02-28T06:34:54;1.60;48.40
13093;DHT22;6612;49.568;11.000;2023-02-28T06:37:23;1.70;48.50
13093;DHT22;6612;49.568;11.000;2023-02-28T06:39:51;1.80;48.90
13093;DHT22;6612;49.568;11.000;2023-02-28T06:42:20;1.90;49.20
13093;DHT22;6612;49.568;11.000;2023-02-28T06:44:47;2.20;49.60
13093;DHT22;6612;49.568;11.000;2023-02-28T06:47:14;2.20;49.60
13093;DHT22;6612;49.568;11.000;2023-02-28T06:49:41;2.30;49.50
13093;DHT22;6612;49.568;11.000;2023-02-28T06:52:08;2.50;49.60
13093;DHT22;6612;49.568;11.000;2023-02-28T06:54:36;2.70;49.80
13093;DHT22;6612;49.568;11.000;2023-02-28T06:57:03;2.90;50.00
13093;DHT22;6612;49.568;11.000;2023-02-28T06:59:31;3.30;50.50
13093;DHT22;6612;49.568;11.000;2023-02-28T07:01:58;3.40;50.60
13093;DHT22;6612;49.568;11.000;2023-02-28T07:04:25;3.70;50.90
13093;DHT22;6612;49.568;11.000;2023-02-28T07:06:54;4.10;50.90
13093;DHT22;6612;49.568;11.000;2023-02-28T07:09:21;4.40;51.30
13093;DHT22;6612;49.568;11.000;2023-02-28T07:11:48;4.80;50.70
13093;DHT22;6612;49.568;11.000;2023-02-28T07:14:15;5.10;50.60
13093;DHT22;6612;49.568;11.000;2023-02-28T07:16:43;5.50;50.90
13093;DHT22;6612;49.568;11.000;2023-02-28T07:19:11;5.90;51.00
13093;DHT22;6612;49.568;11.000;2023-02-28T07:21:38;6.30;51.00
13093;DHT22;6612;49.568;11.000;2023-02-28T07:24:05;6.70;50.80
13093;DHT22;6612;49.568;11.000;2023-02-28T07:26:32;7.10;50.50
13093;DHT22;6612;49.568;11.000;2023-02-28T07:29:00;7.50;50.20
13093;DHT22;6612;49.568;11.000;2023-02-28T07:31:27;7.90;49.90
13093;DHT22;6612;49.568;11.000;2023-02-28T07:33:55;8.20;49.60
13093;DHT22;6612;49.568;11.000;2023-02-28T07:36:22;8.50;49.10
13093;DHT22;6612;49.568;11.000;2023-02-28T07:38:49;8.90;49.00
13093;DHT22;6612;49.568;11.000;2023-02-28T07:41:17;9.20;48.50
13093;DHT22;6612;49.568;11.000;2023-02-28T07:43:44;9.50;48.10
13093;DHT22;6612;49.568;11.000;2023-02-28T07:46:13;9.80;47.10
13093;DHT22;6612;49.568;11.000;2023-02-28T07:48:41;10.00;45.50
13093;DHT22;6612;49.568;11.000;2023-02-28T07:51:10;10.10;45.30
13093;DHT22;6612;49.568;11.000;2023-02-28T07:53:36;10.30;45.40
13093;DHT22;6612;49.568;11.000;2023-02-28T07:56:04;10.60;45.80
13093;DHT22;6612;49.568;11.000;2023-02-28T07:58:31;10.80;45.50
13093;DHT22;6612;49.568;11.000;2023-02-28T08:01:05;11.00;44.80
13093;DHT22;6612;49.568;11.000;2023-02-28T08:03:32;11.20;43.40
13093;DHT22;6612;49.568;11.000;2023-02-28T08:05:59;11.20;42.60
13093;DHT22;6612;49.568;11.000;2023-02-28T08:08:29;11.10;41.10
13093;DHT22;6612;49.568;11.000;2023-02-28T08:10:58;11.00;40.50
13093;DHT22;6612;49.568;11.000;2023-02-28T08:13:26;10.80;39.90
13093;DHT22;6612;49.568;11.000;2023-02-28T08:15:53;10.50;39.30
13093;DHT22;6612;49.568;11.000;2023-02-28T08:18:20;10.20;39.70
13093;DHT22;6612;49.568;11.000;2023-02-28T08:20:47;9.90;39.90
13093;DHT22;6612;49.568;11.000;2023-02-28T08:23:14;9.60;40.40
13093;DHT22;6612;49.568;11.000;2023-02-28T08:25:42;9.40;41.00
13093;DHT22;6612;49.568;11.000;2023-02-28T08:28:09;9.20;40.40
13093;DHT22;6612;49.568;11.000;2023-02-28T08:30:36;9.00;40.50
13093;DHT22;6612;49.568;11.000;2023-02-28T08:33:03;8.80;40.90
13093;DHT22;6612;49.568;11.000;2023-02-28T08:35:30;8.70;41.40
13093;DHT22;6612;49.568;11.000;2023-02-28T08:37:57;8.70;41.60
13093;DHT22;6612;49.568;11.000;2023-02-28T08:40:24;8.80;41.80
13093;DHT22;6612;49.568;11.000;2023-02-28T08:42:52;8.80;41.70
13093;DHT22;6612;49.568;11.000;2023-02-28T08:45:19;8.90;41.80
13093;DHT22;6612;49.568;11.000;2023-02-28T08:47:46;9.00;42.40
13093;DHT22;6612;49.568;11.000;2023-02-28T08:50:13;9.10;41.90
13093;DHT22;6612;49.568;11.000;2023-02-28T08:52:42;9.20;41.00
13093;DHT22;6612;49.568;11.000;2023-02-28T08:55:09;9.30;39.70
13093;DHT22;6612;49.568;11.000;2023-02-28T08:57:36;9.20;39.00
13093;DHT22;6612;49.568;11.000;2023-02-28T09:00:05;9.00;39.70
13093;DHT22;6612;49.568;11.000;2023-02-28T09:02:33;8.80;38.50
13093;DHT22;6612;49.568;11.000;2023-02-28T09:05:00;8.50;38.80
13093;DHT22;6612;49.568;11.000;2023-02-28T09:07:28;8.30;39.10
13093;DHT22;6612;49.568;11.000;2023-02-28T09:09:55;8.20;38.70
13093;DHT22;6612;49.568;11.000;2023-02-28T09:12:24;8.00;38.70
13093;DHT22;6612;49.568;11.000;2023-02-28T09:14:51;7.80;39.10
13093;DHT22;6612;49.568;11.000;2023-02-28T09:17:20;7.80;40.30
13093;DHT22;6612;49.568;11.000;2023-02-28T09:19:48;7.80;39.90
13093;DHT22;6612;49.568;11.000;2023-02-28T09:22:15;7.80;40.70
13093;DHT22;6612;49.568;11.000;2023-02-28T09:24:42;7.90;40.60
13093;DHT22;6612;49.568;11.000;2023-02-28T09:27:10;8.00;40.50
13093;DHT22;6612;49.568;11.000;2023-02-28T09:29:37;8.00;40.30
13093;DHT22;6612;49.568;11.000;2023-02-28T09:32:04;8.00;40.00
13093;DHT22;6612;49.568;11.000;2023-02-28T09:34:33;8.00;40.50
13093;DHT22;6612;49.568;11.000;2023-02-28T09:37:02;8.00;41.10
13093;DHT22;6612;49.568;11.000;2023-02-28T09:39:29;8.10;41.70
13093;DHT22;6612;49.568;11.000;2023-02-28T09:41:57;8.30;42.10
13093;DHT22;6612;49.568;11.000;2023-02-28T09:44:28;8.50;42.20
13093;DHT22;6612;49.568;11.000;2023-02-28T09:47:00;8.80;41.60
13093;DHT22;6612;49.568;11.000;2023-02-28T09:49:35;9.00;40.50
13093;DHT22;6612;49.568;11.000;2023-02-28T09:52:05;9.20;40.50
13093;DHT22;6612;49.568;11.000;2023-02-28T09:54:35;9.40;39.50
13093;DHT22;6612;49.568;11.000;2023-02-28T09:57:08;9.50;40.10
13093;DHT22;6612;49.568;11.000;2023-02-28T10:03:06;9.70;39.80
13093;DHT22;6612;49.568;11.000;2023-02-28T10:05:41;9.80;38.40
13093;DHT22;6612;49.568;11.000;2023-02-28T10:08:13;9.70;38.50
13093;DHT22;6612;49.568;11.000;2023-02-28T10:10:43;9.50;36.20
13093;DHT22;6612;49.568;11.000;2023-02-28T10:13:20;9.30;35.60
13093;DHT22;6612;49.568;11.000;2023-02-28T10:15:52;9.20;36.30
13093;DHT22;6612;49.568;11.000;2023-02-28T10:18:24;9.00;37.40
13093;DHT22;6612;49.568;11.000;2023-02-28T10:20:53;8.90;37.60
13093;DHT22;6612;49.568;11.000;2023-02-28T10:23:25;8.90;38.30
13093;DHT22;6612;49.568;11.000;2023-02-28T10:25:57;8.90;39.00
13093;DHT22;6612;49.568;11.000;2023-02-28T10:28:26;9.00;39.60
13093;DHT22;6612;49.568;11.000;2023-02-28T10:30:54;9.20;39.60
13093;DHT22;6612;49.568;11.000;2023-02-28T10:33:24;9.40;39.60
13093;DHT22;6612;49.568;11.000;2023-02-28T10:35:53;9.70;39.60
13093;DHT22;6612;49.568;11.000;2023-02-28T10:38:22;9.80;38.80
13093;DHT22;6612;49.568;11.000;2023-02-28T10:40:49;9.90;38.40
13093;DHT22;6612;49.568;11.000;2023-02-28T10:43:21;10.00;37.60
13093;DHT22;6612;49.568;11.000;2023-02-28T10:45:58;10.10;37.50
13093;DHT22;6612;49.568;11.000;2023-02-28T10:48:34;10.20;37.20
13093;DHT22;6612;49.568;11.000;2023-02-28T10:51:05;10.20;36.60
13093;DHT22;6612;49.568;11.000;2023-02-28T10:53:35;10.30;35.30
13093;DHT22;6612;49.568;11.000;2023-02-28T10:56:05;10.40;34.90
13093;DHT22;6612;49.568;11.000;2023-02-28T10:58:47;10.40;34.50
13093;DHT22;6612;49.568;11.000;2023-02-28T11:01:16;10.50;35.10
13093;DHT22;6612;49.568;11.000;2023-02-28T11:03:44;10.40;34.40
13093;DHT22;6612;49.568;11.000;2023-02-28T11:06:17;10.40;35.20
13093;DHT22;6612;49.568;11.000;2023-02-28T11:08:46;10.30;34.10
13093;DHT22;6612;49.568;11.000;2023-02-28T11:11:14;10.30;34.30
13093;DHT22;6612;49.568;11.000;2023-02-28T11:13:44;10.20;34.30
13093;DHT22;6612;49.568;11.000;2023-02-28T11:16:12;10.20;34.20
13093;DHT22;6612;49.568;11.000;2023-02-28T11:18:42;9.90;35.10
13093;DHT22;6612;49.568;11.000;2023-02-28T11:21:18;9.70;34.70
13093;DHT22;6612;49.568;11.000;2023-02-28T11:23:45;9.50;34.00
13093;DHT22;6612;49.568;11.000;2023-02-28T11:26:14;9.30;34.90
13093;DHT22;6612;49.568;11.000;2023-02-28T11:28:42;9.20;35.20
13093;DHT22;6612;49.568;11.000;2023-02-28T11:31:17;9.00;35.80
13093;DHT22;6612;49.568;11.000;2023-02-28T11:33:46;8.90;35.20
13093;DHT22;6612;49.568;11.000;2023-02-28T11:36:19;8.80;35.60
13093;DHT22;6612;49.568;11.000;2023-02-28T11:38:47;8.70;35.00
13093;DHT22;6612;49.568;11.000;2023-02-28T11:41:37;8.60;35.80
13093;DHT22;6612;49.568;11.000;2023-02-28T11:44:23;8.60;34.50
13093;DHT22;6612;49.568;11.000;2023-02-28T11:46:58;8.50;35.40
13093;DHT22;6612;49.568;11.000;2023-02-28T11:49:32;8.40;35.30
13093;DHT22;6612;49.568;11.000;2023-02-28T11:52:10;8.40;35.90
13093;DHT22;6612;49.568;11.000;2023-02-28T11:55:01;8.40;35.10
13093;DHT22;6612;49.568;11.000;2023-02-28T11:57:37;8.30;35.00
13093;DHT22;6612;49.568;11.000;2023-02-28T12:00:26;8.30;35.50
13093;DHT22;6612;49.568;11.000;2023-02-28T12:03:04;8.30;35.20
13093;DHT22;6612;49.568;11.000;2023-02-28T12:05:41;8.20;35.70
13093;DHT22;6612;49.568;11.000;2023-02-28T12:08:23;8.20;35.40
13093;DHT22;6612;49.568;11.000;2023-02-28T12:11:02;8.20;35.70
13093;DHT22;6612;49.568;11.000;2023-02-28T12:13:42;8.20;36.20
13093;DHT22;6612;49.568;11.000;2023-02-28T12:16:27;8.20;36.30
13093;DHT22;6612;49.568;11.000;2023-02-28T12:19:08;8.20;36.50
13093;DHT22;6612;49.568;11.000;2023-02-28T12:21:56;8.30;36.60
13093;DHT22;6612;49.568;11.000;2023-02-28T12:24:57;8.30;36.50
13093;DHT22;6612;49.568;11.000;2023-02-28T12:27:29;8.30;36.40
13093;DHT22;6612;49.568;11.000;2023-02-28T12:30:00;8.30;36.90
13093;DHT22;6612;49.568;11.000;2023-02-28T12:32:32;8.30;36.80
13093;DHT22;6612;49.568;11.000;2023-02-28T12:35:03;8.30;36.90
13093;DHT22;6612;49.568;11.000;2023-02-28T12:37:34;8.30;36.60
13093;DHT22;6612;49.568;11.000;2023-02-28T12:40:12;8.30;36.50
13093;DHT22;6612;49.568;11.000;2023-02-28T12:42:41;8.30;36.30
13093;DHT22;6612;49.568;11.000;2023-02-28T12:45:16;8.30;36.60
13093;DHT22;6612;49.568;11.000;2023-02-28T12:47:46;8.30;36.50
13093;DHT22;6612;49.568;11.000;2023-02-28T12:50:15;8.30;36.60
13093;DHT22;6612;49.568;11.000;2023-02-28T12:52:52;8.30;36.40
13093;DHT22;6612;49.568;11.000;2023-02-28T12:55:27;8.30;36.50
13093;DHT22;6612;49.568;11.000;2023-02-28T12:58:03;8.30;36.80
13093;DHT22;6612;49.568;11.000;2023-02-28T13:00:35;8.30;36.80
13093;DHT22;6612;49.568;11.000;2023-02-28T13:03:26;8.30;36.70
13093;DHT22;6612;49.568;11.000;2023-02-28T13:06:16;8.30;36.80
13093;DHT22;6612;49.568;11.000;2023-02-28T13:09:08;8.30;36.80
13093;DHT22;6612;49.568;11.000;2023-02-28T13:11:42;8.30;36.90
13093;DHT22;6612;49.568;11.000;2023-02-28T13:14:23;8.40;36.90
13093;DHT22;6612;49.568;11.000;2023-02-28T13:16:56;8.40;36.80
13093;DHT22;6612;49.568;11.000;2023-02-28T13:19:26;8.40;37.00
13093;DHT22;6612;49.568;11.000;2023-02-28T13:21:54;8.40;37.10
13093;DHT22;6612;49.568;11.000;2023-02-28T13:24:44;8.50;37.10
13093;DHT22;6612;49.568;11.000;2023-02-28T13:27:31;8.50;37.10
13093;DHT22;6612;49.568;11.000;2023-02-28T13:29:58;8.50;36.90
13093;DHT22;6612;49.568;11.000;2023-02-28T13:32:36;8.50;37.20
13093;DHT22;6612;49.568;11.000;2023-02-28T13:38:17;8.60;37.10
13093;DHT22;6612;49.568;11.000;2023-02-28T13:40:48;8.60;36.70
13093;DHT22;6612;49.568;11.000;2023-02-28T13:43:18;8.60;36.80
13093;DHT22;6612;49.568;11.000;2023-02-28T13:46:06;8.60;36.80
13093;DHT22;6612;49.568;11.000;2023-02-28T13:48:34;8.60;36.50
13093;DHT22;6612;49.568;11.000;2023-02-28T13:51:35;8.60;36.80
13093;DHT22;6612;49.568;11.000;2023-02-28T13:54:17;8.60;36.50
13093;DHT22;6612;49.568;11.000;2023-02-28T13:56:53;8.60;36.60
13093;DHT22;6612;49.568;11.000;2023-02-28T13:59:29;8.60;36.90
13093;DHT22;6612;49.568;11.000;2023-02-28T14:02:20;8.60;36.80
13093;DHT22;6612;49.568;11.000;2023-02-28T14:05:02;8.60;36.80
13093;DHT22;6612;49.568;11.000;2023-02-28T14:07:36;8.70;36.80
13093;DHT22;6612;49.568;11.000;2023-02-28T14:10:06;8.70;37.00
13093;DHT22;6612;49.568;11.000;2023-02-28T14:12:57;8.70;36.80
13093;DHT22;6612;49.568;11.000;2023-02-28T14:15:39;8.70;36.50
13093;DHT22;6612;49.568;11.000;2023-02-28T14:18:19;8.70;36.70
13093;DHT22;6612;49.568;11.000;2023-02-28T14:20:48;8.70;36.80
13093;DHT22;6612;49.568;11.000;2023-02-28T14:26:17;8.70;36.80
13093;DHT22;6612;49.568;11.000;2023-02-28T14:29:01;8.80;36.00
13093;DHT22;6612;49.568;11.000;2023-02-28T14:31:39;8.70;36.70
13093;DHT22;6612;49.568;11.000;2023-02-28T14:34:31;8.70;36.80
13093;DHT22;6612;49.568;11.000;2023-02-28T14:37:03;8.70;36.70
13093;DHT22;6612;49.568;11.000;2023-02-28T14:39:32;8.70;36.80
13093;DHT22;6612;49.568;11.000;2023-02-28T14:42:00;8.60;36.70
13093;DHT22;6612;49.568;11.000;2023-02-28T14:44:30;8.60;37.50
13093;DHT22;6612;49.568;11.000;2023-02-28T14:47:00;8.60;36.90
13093;DHT22;6612;49.568;11.000;2023-02-28T14:49:31;8.60;36.90
13093;DHT22;6612;49.568;11.000;2023-02-28T14:52:06;8.60;37.10
13093;DHT22;6612;49.568;11.000;2023-02-28T14:54:35;8.60;36.80
13093;DHT22;6612;49.568;11.000;2023-02-28T14:57:04;8.70;37.00
13093;DHT22;6612;49.568;11.000;2023-02-28T14:59:32;8.60;36.90
13093;DHT22;6612;49.568;11.000;2023-02-28T15:02:21;8.60;37.00
13093;DHT22;6612;49.568;11.000;2023-02-28T15:04:56;8.60;36.70
13093;DHT22;6612;49.568;11.000;2023-02-28T15:07:23;8.60;37.50
13093;DHT22;6612;49.568;11.000;2023-02-28T15:10:13;8.60;36.80
13093;DHT22;6612;49.568;11.000;2023-02-28T15:12:41;8.60;37.10
13093;DHT22;6612;49.568;11.000;2023-02-28T15:15:15;8.60;36.80
13093;DHT22;6612;49.568;11.000;2023-02-28T15:17:45;8.60;36.80
13093;DHT22;6612;49.568;11.000;2023-02-28T15:20:14;8.60;36.90
13093;DHT22;6612;49.568;11.000;2023-02-28T15:22:42;8.60;36.90
13093;DHT22;6612;49.568;11.000;2023-02-28T15:25:10;8.50;36.70
13093;DHT22;6612;49.568;11.000;2023-02-28T15:27:44;8.60;36.70
13093;DHT22;6612;49.568;11.000;2023-02-28T15:30:15;8.50;36.80
13093;DHT22;6612;49.568;11.000;2023-02-28T15:32:44;8.50;36.70
13093;DHT22;6612;49.568;11.000;2023-02-28T15:35:20;8.50;36.80
13093;DHT22;6612;49.568;11.000;2023-02-28T15:37:48;8.50;36.80
13093;DHT22;6612;49.568;11.000;2023-02-28T15:40:26;8.50;36.80
13093;DHT22;6612;49.568;11.000;2023-02-28T15:43:04;8.40;36.70
13093;DHT22;6612;49.568;11.000;2023-02-28T15:45:38;8.40;36.60
13093;DHT22;6612;49.568;11.000;2023-02-28T15:48:14;8.40;36.80
13093;DHT22;6612;49.568;11.000;2023-02-28T15:50:42;8.30;36.80
13093;DHT22;6612;49.568;11.000;2023-02-28T15:53:14;8.30;37.60
13093;DHT22;6612;49.568;11.000;2023-02-28T15:55:42;8.30;36.90
13093;DHT22;6612;49.568;11.000;2023-02-28T15:58:11;8.30;37.00
13093;DHT22;6612;49.568;11.000;2023-02-28T16:00:43;8.30;36.90
13093;DHT22;6612;49.568;11.000;2023-02-28T16:03:25;8.20;36.80
13093;DHT22;6612;49.568;11.000;2023-02-28T16:06:26;8.20;37.50
13093;DHT22;6612;49.568;11.000;2023-02-28T16:08:53;8.20;36.90
13093;DHT22;6612;49.568;11.000;2023-02-28T16:11:20;8.10;36.90
13093;DHT22;6612;49.568;11.000;2023-02-28T16:13:48;8.10;37.10
13093;DHT22;6612;49.568;11.000;2023-02-28T16:16:17;8.00;37.00
13093;DHT22;6612;49.568;11.000;2023-02-28T16:18:46;8.00;37.10
13093;DHT22;6612;49.568;11.000;2023-02-28T16:21:13;8.00;37.10